sensor_id;sensor_type;location;lat;lon;timestamp;pressure;altitude;pressure_sealevel;temperature;humidity
61757;BME280;57225;61.460;24.060;2023-02-13T00:01:38;99998.06;;;2.02;100.00
61757;BME280;57225;61.460;24.060;2023-02-13T00:04:22;99994.75;;;1.96;100.00
61757;BME280;57225;61.460;24.060;2023-02-13T00:07:08;99996.91;;;2.03;100.00
61757;BME280;57225;61.460;24.060;2023-02-13T00:09:54;99994.53;;;2.01;100.00
61757;BME280;57225;61.460;24.060;2023-02-13T00:12:39;99996.56;;;2.05;100.00
61757;BME280;57225;61.460;24.060;2023-02-13T00:15:23;100004.34;;;2.15;100.00
61757;BME280;57225;61.460;24.060;2023-02-13T00:18:08;99986.03;;;2.07;100.00
61757;BME280;57225;61.460;24.060;2023-02-13T00:21:08;100001.81;;;2.10;100.00
61757;BME280;57225;61.460;24.060;2023-02-13T00:23:53;99995.16;;;2.11;100.00
61757;BME280;57225;61.460;24.060;2023-02-13T00:26:37;99995.28;;;2.14;100.00
61757;BME280;57225;61.460;24.060;2023-02-13T00:29:22;100003.66;;;2.06;100.00
61757;BME280;57225;61.460;24.060;2023-02-13T00:32:07;100005.69;;;2.21;100.00
61757;BME280;57225;61.460;24.060;2023-02-13T00:34:51;99990.00;;;2.21;100.00
61757;BME280;57225;61.460;24.060;2023-02-13T00:37:36;99995.16;;;2.11;100.00
61757;BME280;57225;61.460;24.060;2023-02-13T00:40:21;99982.69;;;2.13;100.00
61757;BME280;57225;61.460;24.060;2023-02-13T00:43:05;99985.25;;;2.22;100.00
61757;BME280;57225;61.460;24.060;2023-02-13T00:45:49;99989.47;;;2.31;100.00
61757;BME280;57225;61.460;24.060;2023-02-13T00:48:34;99982.09;;;2.35;100.00
61757;BME280;57225;61.460;24.060;2023-02-13T00:51:19;99985.38;;;2.25;100.00
61757;BME280;57225;61.460;24.060;2023-02-13T00:54:03;99975.19;;;2.26;100.00
61757;BME280;57225;61.460;24.060;2023-02-13T00:56:48;99970.16;;;2.43;100.00
61757;BME280;57225;61.460;24.060;2023-02-13T00:59:32;99976.34;;;2.40;100.00
61757;BME280;57225;61.460;24.060;2023-02-13T01:02:17;99973.97;;;2.39;100.00
61757;BME280;57225;61.460;24.060;2023-02-13T01:05:02;99969.00;;;2.45;100.00
61757;BME280;57225;61.460;24.060;2023-02-13T01:07:46;99955.66;;;2.31;100.00
61757;BME280;57225;61.460;24.060;2023-02-13T01:10:31;99961.81;;;2.40;100.00
61757;BME280;57225;61.460;24.060;2023-02-13T01:13:16;99944.59;;;2.43;100.00
61757;BME280;57225;61.460;24.060;2023-02-13T01:16:04;99944.88;;;2.38;100.00
61757;BME280;57225;61.460;24.060;2023-02-13T01:18:48;99947.47;;;2.47;100.00
61757;BME280;57225;61.460;24.060;2023-02-13T01:21:33;99939.81;;;2.40;100.00
61757;BME280;57225;61.460;24.060;2023-02-13T01:24:17;99943.72;;;2.39;100.00
61757;BME280;57225;61.460;24.060;2023-02-13T01:27:02;99940.06;;;2.35;100.00
61757;BME280;57225;61.460;24.060;2023-02-13T01:29:47;99931.28;;;2.29;100.00
61757;BME280;57225;61.460;24.060;2023-02-13T01:32:32;99924.78;;;2.22;100.00
61757;BME280;57225;61.460;24.060;2023-02-13T01:35:16;99936.44;;;2.31;100.00
61757;BME280;57225;61.460;24.060;2023-02-13T01:38:01;99937.31;;;2.35;100.00
61757;BME280;57225;61.460;24.060;2023-02-13T01:40:49;99926.75;;;2.37;100.00
61757;BME280;57225;61.460;24.060;2023-02-13T01:43:53;99936.16;;;2.36;100.00
61757;BME280;57225;61.460;24.060;2023-02-13T01:46:40;99930.84;;;2.43;100.00
61757;BME280;57225;61.460;24.060;2023-02-13T01:49:26;99934.13;;;2.49;100.00
61757;BME280;57225;61.460;24.060;2023-02-13T01:52:11;99931.72;;;2.47;100.00
61757;BME280;57225;61.460;24.060;2023-02-13T01:54:56;99928.28;;;2.50;100.00
61757;BME280;57225;61.460;24.060;2023-02-13T01:57:42;99929.44;;;2.49;100.00
61757;BME280;57225;61.460;24.060;2023-02-13T02:00:30;99930.31;;;2.53;100.00
61757;BME280;57225;61.460;24.060;2023-02-13T02:03:20;99928.97;;;2.47;100.00
61757;BME280;57225;61.460;24.060;2023-02-13T02:06:07;99934.66;;;2.38;100.00
61757;BME280;57225;61.460;24.060;2023-02-13T02:08:55;99916.66;;;2.41;100.00
61757;BME280;57225;61.460;24.060;2023-02-13T02:12:06;99915.84;;;2.40;100.00
61757;BME280;57225;61.460;24.060;2023-02-13T02:14:53;99914.97;;;2.36;100.00
61757;BME280;57225;61.460;24.060;2023-02-13T02:17:38;99905.50;;;2.34;100.00
61757;BME280;57225;61.460;24.060;2023-02-13T02:27:16;99888.47;;;2.00;100.00
61757;BME280;57225;61.460;24.060;2023-02-13T02:33:24;99875.88;;;1.99;100.00
61757;BME280;57225;61.460;24.060;2023-02-13T02:36:40;99871.81;;;1.93;100.00
61757;BME280;57225;61.460;24.060;2023-02-13T02:40:02;99889.28;;;2.01;100.00
61757;BME280;57225;61.460;24.060;2023-02-13T02:43:02;99891.03;;;1.93;100.00
61757;BME280;57225;61.460;24.060;2023-02-13T02:46:16;99890.03;;;1.86;100.00
61757;BME280;57225;61.460;24.060;2023-02-13T02:49:12;99887.88;;;1.79;100.00
61757;BME280;57225;61.460;24.060;2023-02-13T02:52:20;99883.66;;;1.82;100.00
61757;BME280;57225;61.460;24.060;2023-02-13T02:55:31;99897.78;;;1.68;100.00
61757;BME280;57225;61.460;24.060;2023-02-13T02:58:23;99894.38;;;1.59;100.00
61757;BME280;57225;61.460;24.060;2023-02-13T03:01:29;99892.88;;;1.61;100.00
61757;BME280;57225;61.460;24.060;2023-02-13T03:04:50;99887.72;;;1.60;100.00
61757;BME280;57225;61.460;24.060;2023-02-13T03:07:55;99880.84;;;1.66;100.00
61757;BME280;57225;61.460;24.060;2023-02-13T03:10:39;99873.69;;;1.77;100.00
61757;BME280;57225;61.460;24.060;2023-02-13T03:13:46;99879.59;;;1.64;100.00
61757;BME280;57225;61.460;24.060;2023-02-13T03:16:33;99852.97;;;1.52;100.00
61757;BME280;57225;61.460;24.060;2023-02-13T03:31:57;99876.28;;;1.70;100.00
61757;BME280;57225;61.460;24.060;2023-02-13T03:34:56;99881.03;;;1.73;100.00
61757;BME280;57225;61.460;24.060;2023-02-13T03:38:17;99878.16;;;1.82;100.00
61757;BME280;57225;61.460;24.060;2023-02-13T03:41:08;99873.53;;;1.86;100.00
61757;BME280;57225;61.460;24.060;2023-02-13T03:44:17;99873.81;;;1.96;100.00
61757;BME280;57225;61.460;24.060;2023-02-13T03:47:08;99865.78;;;2.03;100.00
61757;BME280;57225;61.460;24.060;2023-02-13T03:49:54;99878.84;;;2.22;100.00
61757;BME280;57225;61.460;24.060;2023-02-13T03:53:08;99884.44;;;2.26;100.00
61757;BME280;57225;61.460;24.060;2023-02-13T03:55:54;99884.03;;;2.39;100.00
61757;BME280;57225;61.460;24.060;2023-02-13T03:59:01;99888.81;;;2.58;100.00
61757;BME280;57225;61.460;24.060;2023-02-13T04:02:17;99902.66;;;2.77;100.00
61757;BME280;57225;61.460;24.060;2023-02-13T04:05:10;99894.28;;;2.90;100.00
61757;BME280;57225;61.460;24.060;2023-02-13T04:07:57;99895.91;;;2.91;100.00
61757;BME280;57225;61.460;24.060;2023-02-13T04:10:52;99896.16;;;2.86;100.00
61757;BME280;57225;61.460;24.060;2023-02-13T04:13:56;99892.59;;;3.01;100.00
61757;BME280;57225;61.460;24.060;2023-02-13T04:16:44;99898.69;;;3.10;100.00
61757;BME280;57225;61.460;24.060;2023-02-13T04:19:32;99896.22;;;3.05;100.00
61757;BME280;57225;61.460;24.060;2023-02-13T04:22:17;99902.78;;;3.16;100.00
61757;BME280;57225;61.460;24.060;2023-02-13T04:25:01;99892.31;;;3.06;100.00
61757;BME280;57225;61.460;24.060;2023-02-13T04:27:46;99899.56;;;3.14;100.00
61757;BME280;57225;61.460;24.060;2023-02-13T04:30:30;99880.41;;;3.02;100.00
61757;BME280;57225;61.460;24.060;2023-02-13T04:33:15;99882.66;;;2.80;100.00
61757;BME280;57225;61.460;24.060;2023-02-13T04:35:59;99903.81;;;2.76;100.00
61757;BME280;57225;61.460;24.060;2023-02-13T04:38:44;99887.72;;;2.78;100.00
61757;BME280;57225;61.460;24.060;2023-02-13T04:41:28;99890.56;;;2.82;100.00
61757;BME280;57225;61.460;24.060;2023-02-13T04:44:13;99880.78;;;2.84;100.00
61757;BME280;57225;61.460;24.060;2023-02-13T04:46:57;99882.84;;;2.72;100.00
61757;BME280;57225;61.460;24.060;2023-02-13T04:49:42;99885.06;;;2.66;100.00
61757;BME280;57225;61.460;24.060;2023-02-13T04:52:26;99873.53;;;2.76;100.00
61757;BME280;57225;61.460;24.060;2023-02-13T04:55:11;99881.69;;;2.89;100.00
61757;BME280;57225;61.460;24.060;2023-02-13T04:57:55;99864.94;;;2.78;100.00
61757;BME280;57225;61.460;24.060;2023-02-13T05:00:40;99866.72;;;2.70;100.00
61757;BME280;57225;61.460;24.060;2023-02-13T05:03:24;99868.66;;;2.70;100.00
61757;BME280;57225;61.460;24.060;2023-02-13T05:06:08;99874.00;;;2.63;100.00
61757;BME280;57225;61.460;24.060;2023-02-13T05:08:53;99874.25;;;2.58;100.00
61757;BME280;57225;61.460;24.060;2023-02-13T05:11:37;99873.00;;;2.55;100.00
61757;BME280;57225;61.460;24.060;2023-02-13T05:14:22;99866.00;;;2.58;100.00
61757;BME280;57225;61.460;24.060;2023-02-13T05:17:07;99871.69;;;2.65;100.00
61757;BME280;57225;61.460;24.060;2023-02-13T05:19:51;99858.91;;;2.57;100.00
61757;BME280;57225;61.460;24.060;2023-02-13T05:22:35;99862.97;;;2.63;100.00
61757;BME280;57225;61.460;24.060;2023-02-13T05:25:40;99854.44;;;2.68;100.00
61757;BME280;57225;61.460;24.060;2023-02-13T05:28:24;99845.75;;;2.81;100.00
61757;BME280;57225;61.460;24.060;2023-02-13T05:31:28;99859.56;;;3.01;100.00
61757;BME280;57225;61.460;24.060;2023-02-13T05:34:12;99839.53;;;3.04;100.00
61757;BME280;57225;61.460;24.060;2023-02-13T05:36:57;99822.81;;;2.93;100.00
61757;BME280;57225;61.460;24.060;2023-02-13T05:39:41;99841.31;;;3.12;100.00
61757;BME280;57225;61.460;24.060;2023-02-13T05:42:26;99845.81;;;3.20;100.00
61757;BME280;57225;61.460;24.060;2023-02-13T05:45:10;99851.13;;;3.29;100.00
61757;BME280;57225;61.460;24.060;2023-02-13T05:47:55;99837.63;;;3.23;100.00
61757;BME280;57225;61.460;24.060;2023-02-13T05:50:39;99831.97;;;3.36;100.00
61757;BME280;57225;61.460;24.060;2023-02-13T05:53:23;99842.34;;;3.23;100.00
61757;BME280;57225;61.460;24.060;2023-02-13T05:56:08;99815.38;;;3.13;100.00
61757;BME280;57225;61.460;24.060;2023-02-13T05:58:56;99852.34;;;3.31;100.00
61757;BME280;57225;61.460;24.060;2023-02-13T06:01:40;99852.22;;;3.43;100.00
61757;BME280;57225;61.460;24.060;2023-02-13T06:04:25;99855.69;;;3.40;100.00
61757;BME280;57225;61.460;24.060;2023-02-13T06:07:09;99858.53;;;3.44;100.00
61757;BME280;57225;61.460;24.060;2023-02-13T06:09:54;99847.22;;;3.49;100.00
61757;BME280;57225;61.460;24.060;2023-02-13T06:12:38;99858.06;;;3.42;100.00
61757;BME280;57225;61.460;24.060;2023-02-13T06:15:23;99868.53;;;3.33;100.00
61757;BME280;57225;61.460;24.060;2023-02-13T06:18:07;99867.66;;;3.48;100.00
61757;BME280;57225;61.460;24.060;2023-02-13T06:20:52;99852.38;;;3.50;100.00
61757;BME280;57225;61.460;24.060;2023-02-13T06:23:36;99847.94;;;3.46;100.00
61757;BME280;57225;61.460;24.060;2023-02-13T06:26:21;99842.44;;;3.46;100.00
61757;BME280;57225;61.460;24.060;2023-02-13T06:29:05;99844.84;;;3.47;100.00
61757;BME280;57225;61.460;24.060;2023-02-13T06:31:49;99853.97;;;3.51;100.00
61757;BME280;57225;61.460;24.060;2023-02-13T06:34:34;99842.66;;;3.56;100.00
61757;BME280;57225;61.460;24.060;2023-02-13T06:56:09;99850.63;;;3.42;100.00
61757;BME280;57225;61.460;24.060;2023-02-13T06:58:54;99848.09;;;3.53;100.00
61757;BME280;57225;61.460;24.060;2023-02-13T07:01:38;99842.66;;;3.56;100.00
61757;BME280;57225;61.460;24.060;2023-02-13T07:04:23;99842.84;;;3.67;100.00
61757;BME280;57225;61.460;24.060;2023-02-13T07:07:07;99832.78;;;3.55;100.00
61757;BME280;57225;61.460;24.060;2023-02-13T07:09:51;99839.69;;;3.65;100.00
61757;BME280;57225;61.460;24.060;2023-02-13T07:12:36;99838.09;;;3.64;100.00
61757;BME280;57225;61.460;24.060;2023-02-13T07:15:21;99860.63;;;3.70;100.00
61757;BME280;57225;61.460;24.060;2023-02-13T07:18:05;99850.34;;;3.67;100.00
61757;BME280;57225;61.460;24.060;2023-02-13T07:20:50;99852.22;;;3.62;100.00
61757;BME280;57225;61.460;24.060;2023-02-13T07:23:34;99857.44;;;3.68;100.00
61757;BME280;57225;61.460;24.060;2023-02-13T07:26:19;99860.28;;;3.71;100.00
61757;BME280;57225;61.460;24.060;2023-02-13T07:29:04;99840.63;;;3.73;100.00
61757;BME280;57225;61.460;24.060;2023-02-13T07:31:49;99831.75;;;3.83;100.00
61757;BME280;57225;61.460;24.060;2023-02-13T07:34:33;99826.97;;;3.80;100.00
61757;BME280;57225;61.460;24.060;2023-02-13T07:37:18;99839.66;;;3.84;100.00
61757;BME280;57225;61.460;24.060;2023-02-13T07:40:02;99839.53;;;3.77;100.00
61757;BME280;57225;61.460;24.060;2023-02-13T07:42:50;99846.69;;;3.82;100.00
61757;BME280;57225;61.460;24.060;2023-02-13T07:45:34;99851.50;;;3.85;100.00
61757;BME280;57225;61.460;24.060;2023-02-13T07:48:19;99855.53;;;3.91;100.00
61757;BME280;57225;61.460;24.060;2023-02-13T07:51:04;99850.69;;;3.84;100.00
61757;BME280;57225;61.460;24.060;2023-02-13T07:53:48;99850.75;;;3.88;100.00
61757;BME280;57225;61.460;24.060;2023-02-13T07:56:33;99824.63;;;3.82;100.00
61757;BME280;57225;61.460;24.060;2023-02-13T07:59:17;99840.88;;;3.87;100.00
61757;BME280;57225;61.460;24.060;2023-02-13T08:02:02;99848.78;;;3.88;100.00
61757;BME280;57225;61.460;24.060;2023-02-13T08:04:46;99850.84;;;3.91;100.00
61757;BME280;57225;61.460;24.060;2023-02-13T08:07:31;99837.94;;;3.99;99.70
61757;BME280;57225;61.460;24.060;2023-02-13T08:10:15;99838.34;;;3.97;99.68
61757;BME280;57225;61.460;24.060;2023-02-13T08:13:18;99848.25;;;4.02;98.82
61757;BME280;57225;61.460;24.060;2023-02-13T08:16:03;99847.16;;;4.07;98.61
61757;BME280;57225;61.460;24.060;2023-02-13T08:18:47;99853.41;;;4.03;98.63
61757;BME280;57225;61.460;24.060;2023-02-13T08:21:32;99830.69;;;4.10;97.96
61757;BME280;57225;61.460;24.060;2023-02-13T08:24:18;99840.19;;;4.13;97.67
61757;BME280;57225;61.460;24.060;2023-02-13T08:27:02;99847.38;;;4.17;97.25
61757;BME280;57225;61.460;24.060;2023-02-13T08:29:48;99848.94;;;4.18;97.14
61757;BME280;57225;61.460;24.060;2023-02-13T08:32:32;99843.50;;;4.22;96.75
61757;BME280;57225;61.460;24.060;2023-02-13T08:35:17;99848.53;;;4.16;97.08
61757;BME280;57225;61.460;24.060;2023-02-13T08:38:02;99852.56;;;4.22;96.78
61757;BME280;57225;61.460;24.060;2023-02-13T08:40:47;99869.97;;;4.26;96.60
61757;BME280;57225;61.460;24.060;2023-02-13T08:43:31;99866.06;;;4.27;96.48
61757;BME280;57225;61.460;24.060;2023-02-13T08:46:16;99845.03;;;4.19;96.30
61757;BME280;57225;61.460;24.060;2023-02-13T08:49:01;99864.91;;;4.28;96.13
61757;BME280;57225;61.460;24.060;2023-02-13T08:51:45;99875.13;;;4.28;96.03
61757;BME280;57225;61.460;24.060;2023-02-13T08:54:29;99892.19;;;4.33;95.77
61757;BME280;57225;61.460;24.060;2023-02-13T08:57:14;99891.88;;;4.38;95.41
61757;BME280;57225;61.460;24.060;2023-02-13T08:59:58;99891.03;;;4.34;95.82
61757;BME280;57225;61.460;24.060;2023-02-13T09:02:43;99894.19;;;4.36;96.03
61757;BME280;57225;61.460;24.060;2023-02-13T09:05:28;99884.75;;;4.37;96.28
61757;BME280;57225;61.460;24.060;2023-02-13T09:08:14;99885.25;;;4.43;95.81
61757;BME280;57225;61.460;24.060;2023-02-13T09:11:01;99896.78;;;4.49;95.95
61757;BME280;57225;61.460;24.060;2023-02-13T09:13:46;99895.25;;;4.51;96.03
61757;BME280;57225;61.460;24.060;2023-02-13T09:16:30;99896.59;;;4.61;95.72
61757;BME280;57225;61.460;24.060;2023-02-13T09:19:15;99891.38;;;4.56;95.84
61757;BME280;57225;61.460;24.060;2023-02-13T09:21:59;99885.56;;;4.61;95.45
61757;BME280;57225;61.460;24.060;2023-02-13T09:24:44;99881.34;;;4.67;95.28
61757;BME280;57225;61.460;24.060;2023-02-13T09:27:29;99879.66;;;4.62;95.11
61757;BME280;57225;61.460;24.060;2023-02-13T09:30:14;99889.53;;;4.63;95.29
61757;BME280;57225;61.460;24.060;2023-02-13T09:33:09;99886.91;;;4.70;94.77
61757;BME280;57225;61.460;24.060;2023-02-13T09:35:54;99894.06;;;4.75;94.13
61757;BME280;57225;61.460;24.060;2023-02-13T09:38:39;99880.69;;;4.77;93.84
61757;BME280;57225;61.460;24.060;2023-02-13T09:41:36;99899.03;;;4.89;92.95
61757;BME280;57225;61.460;24.060;2023-02-13T09:47:35;99886.47;;;4.91;91.99
61757;BME280;57225;61.460;24.060;2023-02-13T09:50:23;99885.28;;;4.92;90.89
61757;BME280;57225;61.460;24.060;2023-02-13T09:53:18;99888.06;;;4.92;90.83
61757;BME280;57225;61.460;24.060;2023-02-13T09:56:14;99879.50;;;5.01;90.19
61757;BME280;57225;61.460;24.060;2023-02-13T09:59:32;99890.50;;;4.97;89.67
61757;BME280;57225;61.460;24.060;2023-02-13T10:05:55;99900.59;;;4.86;89.09
61757;BME280;57225;61.460;24.060;2023-02-13T10:17:41;99899.50;;;4.94;86.95
61757;BME280;57225;61.460;24.060;2023-02-13T10:20:35;99907.78;;;4.94;86.46
61757;BME280;57225;61.460;24.060;2023-02-13T10:23:24;99915.66;;;4.92;86.33
61757;BME280;57225;61.460;24.060;2023-02-13T10:26:19;99906.59;;;4.92;86.38
61757;BME280;57225;61.460;24.060;2023-02-13T10:32:17;99904.31;;;4.97;84.09
61757;BME280;57225;61.460;24.060;2023-02-13T10:35:17;99903.25;;;5.05;84.38
61757;BME280;57225;61.460;24.060;2023-02-13T10:38:14;99904.06;;;5.06;83.01
61757;BME280;57225;61.460;24.060;2023-02-13T10:47:23;99914.19;;;4.98;83.62
61757;BME280;57225;61.460;24.060;2023-02-13T10:59:04;99928.16;;;5.09;82.79
61757;BME280;57225;61.460;24.060;2023-02-13T11:02:02;99923.59;;;5.20;83.31
61757;BME280;57225;61.460;24.060;2023-02-13T11:05:01;99894.38;;;4.93;82.67
61757;BME280;57225;61.460;24.060;2023-02-13T11:07:46;99926.19;;;5.09;83.33
61757;BME280;57225;61.460;24.060;2023-02-13T11:10:31;99919.13;;;5.12;82.80
61757;BME280;57225;61.460;24.060;2023-02-13T11:13:21;99919.19;;;5.15;82.94
61757;BME280;57225;61.460;24.060;2023-02-13T11:16:07;99933.47;;;5.21;83.48
61757;BME280;57225;61.460;24.060;2023-02-13T11:18:56;99934.16;;;5.14;82.85
61757;BME280;57225;61.460;24.060;2023-02-13T11:21:41;99933.56;;;5.02;82.85
61757;BME280;57225;61.460;24.060;2023-02-13T11:24:26;99936.44;;;5.09;83.43
61757;BME280;57225;61.460;24.060;2023-02-13T11:27:12;99922.38;;;5.17;83.89
61757;BME280;57225;61.460;24.060;2023-02-13T11:33:23;99926.06;;;5.02;83.44
61757;BME280;57225;61.460;24.060;2023-02-13T11:36:15;99904.31;;;4.97;83.91
61757;BME280;57225;61.460;24.060;2023-02-13T11:39:06;99922.19;;;5.07;82.65
61757;BME280;57225;61.460;24.060;2023-02-13T11:41:50;99934.31;;;4.99;83.69
61757;BME280;57225;61.460;24.060;2023-02-13T11:44:35;99934.78;;;5.04;83.69
61757;BME280;57225;61.460;24.060;2023-02-13T11:47:38;99934.69;;;4.97;83.75
61757;BME280;57225;61.460;24.060;2023-02-13T11:53:20;99926.72;;;4.92;83.94
61757;BME280;57225;61.460;24.060;2023-02-13T11:56:14;99940.94;;;4.94;84.12
61757;BME280;57225;61.460;24.060;2023-02-13T11:59:01;99957.44;;;4.91;83.61
61757;BME280;57225;61.460;24.060;2023-02-13T12:01:46;99955.94;;;4.93;82.74
61757;BME280;57225;61.460;24.060;2023-02-13T12:04:33;99943.69;;;4.94;82.66
61757;BME280;57225;61.460;24.060;2023-02-13T12:07:29;99944.97;;;5.00;82.02
61757;BME280;57225;61.460;24.060;2023-02-13T12:10:25;99950.22;;;5.05;80.84
61757;BME280;57225;61.460;24.060;2023-02-13T12:13:45;99967.38;;;4.95;81.32
61757;BME280;57225;61.460;24.060;2023-02-13T12:16:41;99966.53;;;4.91;81.10
61757;BME280;57225;61.460;24.060;2023-02-13T12:19:37;99967.81;;;4.97;81.75
61757;BME280;57225;61.460;24.060;2023-02-13T12:23:00;99962.13;;;4.87;81.40
61757;BME280;57225;61.460;24.060;2023-02-13T12:26:00;99971.63;;;4.89;80.92
61757;BME280;57225;61.460;24.060;2023-02-13T12:32:17;99984.00;;;4.76;81.90
61757;BME280;57225;61.460;24.060;2023-02-13T12:41:21;100001.72;;;4.75;81.80
61757;BME280;57225;61.460;24.060;2023-02-13T12:47:22;99994.06;;;4.65;82.44
61757;BME280;57225;61.460;24.060;2023-02-13T12:50:38;99997.19;;;4.63;82.98
61757;BME280;57225;61.460;24.060;2023-02-13T12:59:23;100001.09;;;4.62;81.99
61757;BME280;57225;61.460;24.060;2023-02-13T13:02:40;100009.63;;;4.54;82.11
61757;BME280;57225;61.460;24.060;2023-02-13T13:05:51;100019.88;;;4.53;81.71
61757;BME280;57225;61.460;24.060;2023-02-13T13:15:05;100029.09;;;4.41;81.50
61757;BME280;57225;61.460;24.060;2023-02-13T13:20:53;100032.56;;;4.19;83.14
61757;BME280;57225;61.460;24.060;2023-02-13T13:23:48;100041.94;;;4.15;83.47
61757;BME280;57225;61.460;24.060;2023-02-13T13:26:41;100032.66;;;4.23;82.60
61757;BME280;57225;61.460;24.060;2023-02-13T13:29:39;100040.44;;;4.17;82.92
61757;BME280;57225;61.460;24.060;2023-02-13T13:32:26;100048.41;;;4.22;82.85
61757;BME280;57225;61.460;24.060;2023-02-13T13:35:15;100043.03;;;4.10;83.15
61757;BME280;57225;61.460;24.060;2023-02-13T13:47:56;100066.97;;;4.06;83.90
61757;BME280;57225;61.460;24.060;2023-02-13T13:50:48;100066.91;;;4.02;83.57
61757;BME280;57225;61.460;24.060;2023-02-13T13:53:33;100069.50;;;3.95;83.61
61757;BME280;57225;61.460;24.060;2023-02-13T13:56:19;100068.81;;;3.83;84.67
61757;BME280;57225;61.460;24.060;2023-02-13T13:59:15;100075.38;;;3.94;83.56
61757;BME280;57225;61.460;24.060;2023-02-13T14:02:38;100087.81;;;3.88;84.20
61757;BME280;57225;61.460;24.060;2023-02-13T14:05:26;100085.34;;;3.83;85.28
61757;BME280;57225;61.460;24.060;2023-02-13T14:11:43;100100.13;;;3.75;84.72
61757;BME280;57225;61.460;24.060;2023-02-13T14:17:14;100108.31;;;3.71;84.72
61757;BME280;57225;61.460;24.060;2023-02-13T14:19:59;100106.19;;;3.64;84.43
61757;BME280;57225;61.460;24.060;2023-02-13T14:22:44;100117.56;;;3.63;84.72
61757;BME280;57225;61.460;24.060;2023-02-13T14:25:28;100116.75;;;3.62;84.53
61757;BME280;57225;61.460;24.060;2023-02-13T14:28:22;100121.03;;;3.60;84.87
61757;BME280;57225;61.460;24.060;2023-02-13T14:46:30;100159.69;;;3.32;85.89
61757;BME280;57225;61.460;24.060;2023-02-13T14:52:37;100144.75;;;3.33;85.54
61757;BME280;57225;61.460;24.060;2023-02-13T14:55:40;100147.59;;;3.21;86.86
61757;BME280;57225;61.460;24.060;2023-02-13T14:58:31;100155.31;;;3.15;87.07
61757;BME280;57225;61.460;24.060;2023-02-13T15:06:56;100162.22;;;3.09;87.40
61757;BME280;57225;61.460;24.060;2023-02-13T15:09:50;100162.63;;;2.96;88.36
61757;BME280;57225;61.460;24.060;2023-02-13T15:12:36;100162.09;;;3.06;87.28
61757;BME280;57225;61.460;24.060;2023-02-13T15:15:27;100168.75;;;3.05;87.46
61757;BME280;57225;61.460;24.060;2023-02-13T15:18:21;100172.91;;;2.99;87.79
61757;BME280;57225;61.460;24.060;2023-02-13T15:21:13;100183.13;;;2.98;88.33
61757;BME280;57225;61.460;24.060;2023-02-13T15:23:59;100176.19;;;2.89;88.60
61757;BME280;57225;61.460;24.060;2023-02-13T15:26:49;100185.50;;;2.72;89.80
61757;BME280;57225;61.460;24.060;2023-02-13T15:29:33;100185.50;;;2.84;88.98
61757;BME280;57225;61.460;24.060;2023-02-13T15:32:23;100198.47;;;2.83;89.50
61757;BME280;57225;61.460;24.060;2023-02-13T15:35:30;100207.66;;;2.75;89.58
61757;BME280;57225;61.460;24.060;2023-02-13T15:38:33;100207.75;;;2.79;89.69
61757;BME280;57225;61.460;24.060;2023-02-13T15:41:21;100202.16;;;2.75;89.76
61757;BME280;57225;61.460;24.060;2023-02-13T15:44:16;100212.03;;;2.64;90.46
61757;BME280;57225;61.460;24.060;2023-02-13T15:47:08;100224.66;;;2.65;90.79
61757;BME280;57225;61.460;24.060;2023-02-13T15:49:58;100227.88;;;2.55;91.13
61757;BME280;57225;61.460;24.060;2023-02-13T15:52:44;100230.06;;;2.50;91.54
61757;BME280;57225;61.460;24.060;2023-02-13T15:55:32;100229.94;;;2.58;91.10
61757;BME280;57225;61.460;24.060;2023-02-13T15:58:26;100231.34;;;2.52;91.47
61757;BME280;57225;61.460;24.060;2023-02-13T16:01:13;100235.56;;;2.50;91.23
61757;BME280;57225;61.460;24.060;2023-02-13T16:04:08;100239.69;;;2.56;90.68
61757;BME280;57225;61.460;24.060;2023-02-13T16:06:55;100248.63;;;2.53;91.17
61757;BME280;57225;61.460;24.060;2023-02-13T16:09:41;100259.75;;;2.56;90.48
61757;BME280;57225;61.460;24.060;2023-02-13T16:12:27;100256.28;;;2.47;91.15
61757;BME280;57225;61.460;24.060;2023-02-13T16:15:15;100276.72;;;2.34;92.64
61757;BME280;57225;61.460;24.060;2023-02-13T16:18:00;100282.66;;;2.24;92.40
61757;BME280;57225;61.460;24.060;2023-02-13T16:20:52;100291.81;;;2.28;92.24
61757;BME280;57225;61.460;24.060;2023-02-13T16:23:38;100291.81;;;2.28;92.22
61757;BME280;57225;61.460;24.060;2023-02-13T16:26:22;100301.25;;;2.27;92.26
61757;BME280;57225;61.460;24.060;2023-02-13T16:29:14;100295.03;;;2.30;91.73
61757;BME280;57225;61.460;24.060;2023-02-13T16:32:11;100300.78;;;2.13;92.78
61757;BME280;57225;61.460;24.060;2023-02-13T16:35:26;100308.66;;;2.02;93.77
61757;BME280;57225;61.460;24.060;2023-02-13T16:38:29;100309.91;;;2.05;93.34
61757;BME280;57225;61.460;24.060;2023-02-13T16:44:25;100330.69;;;2.14;92.55
61757;BME280;57225;61.460;24.060;2023-02-13T16:47:21;100341.53;;;2.11;92.35
61757;BME280;57225;61.460;24.060;2023-02-13T16:50:13;100324.91;;;1.95;92.39
61757;BME280;57225;61.460;24.060;2023-02-13T16:53:02;100350.44;;;1.95;93.05
61757;BME280;57225;61.460;24.060;2023-02-13T16:55:56;100355.94;;;1.95;93.36
61757;BME280;57225;61.460;24.060;2023-02-13T16:58:40;100358.69;;;1.95;93.00
61757;BME280;57225;61.460;24.060;2023-02-13T17:01:25;100355.44;;;1.81;94.07
61757;BME280;57225;61.460;24.060;2023-02-13T17:04:20;100352.91;;;1.76;94.14
61757;BME280;57225;61.460;24.060;2023-02-13T17:07:11;100357.94;;;1.74;94.67
61757;BME280;57225;61.460;24.060;2023-02-13T17:09:58;100367.91;;;1.79;93.98
61757;BME280;57225;61.460;24.060;2023-02-13T17:12:43;100361.34;;;1.71;94.90
61757;BME280;57225;61.460;24.060;2023-02-13T17:15:29;100373.03;;;1.68;94.89
61757;BME280;57225;61.460;24.060;2023-02-13T17:18:15;100373.69;;;1.65;94.70
61757;BME280;57225;61.460;24.060;2023-02-13T17:20:59;100382.13;;;1.60;95.55
61757;BME280;57225;61.460;24.060;2023-02-13T17:23:44;100363.88;;;1.43;95.09